createdAt,value
2022-10-05T00:00:54.956Z,10.57
2022-10-05T00:03:36.997Z,10.56
2022-10-05T00:06:05.634Z,10.53
2022-10-05T00:08:35.784Z,10.51
2022-10-05T00:11:07.377Z,10.49
2022-10-05T00:13:35.699Z,10.45
2022-10-05T00:16:13.012Z,10.43
2022-10-05T00:18:41.364Z,10.45
2022-10-05T00:21:18.679Z,10.45
2022-10-05T00:23:47.372Z,10.45
2022-10-05T00:26:27.212Z,10.43
2022-10-05T00:28:55.529Z,10.39
2022-10-05T00:31:29.588Z,10.37
2022-10-05T00:33:58.128Z,10.34
2022-10-05T00:36:26.423Z,10.34
2022-10-05T00:38:55.143Z,10.34
2022-10-05T00:41:32.207Z,10.33
2022-10-05T00:44:08.938Z,10.31
2022-10-05T00:46:53.270Z,10.29
2022-10-05T00:50:05.348Z,10.27
2022-10-05T00:52:51.958Z,10.23
2022-10-05T00:56:04.154Z,10.18
2022-10-05T00:58:41.537Z,10.16
2022-10-05T01:01:38.854Z,10.15
2022-10-05T01:04:27.078Z,10.14
2022-10-05T01:07:13.093Z,10.12
2022-10-05T01:09:59.328Z,10.09
2022-10-05T01:12:45.526Z,10.04
2022-10-05T01:15:33.558Z,10.01
2022-10-05T01:18:01.380Z,9.98
2022-10-05T01:20:51.842Z,9.99
2022-10-05T01:23:38.462Z,9.99
2022-10-05T01:26:30.829Z,9.95
2022-10-05T01:28:58.977Z,9.89
2022-10-05T01:31:45.961Z,9.87
2022-10-05T01:34:44.684Z,9.84
2022-10-05T01:37:18.849Z,9.85
2022-10-05T01:39:58.803Z,9.85
2022-10-05T01:42:36.304Z,9.85
2022-10-05T01:45:09.843Z,9.85
2022-10-05T01:47:47.909Z,9.83
2022-10-05T01:50:24.604Z,9.81
2022-10-05T01:53:34.634Z,9.80
2022-10-05T01:56:10.514Z,9.77
2022-10-05T01:58:53.494Z,9.76
2022-10-05T02:01:35.957Z,9.76
2022-10-05T02:04:43.360Z,9.75
2022-10-05T02:07:16.751Z,9.75
2022-10-05T02:09:55.860Z,9.74
2022-10-05T02:12:28.622Z,9.75
2022-10-05T02:15:03.966Z,9.77
2022-10-05T02:17:50.866Z,9.77
2022-10-05T02:20:27.940Z,9.77
2022-10-05T02:23:06.213Z,9.77
2022-10-05T02:25:39.006Z,9.77
2022-10-05T02:28:37.377Z,9.74
2022-10-05T02:31:19.943Z,9.73
2022-10-05T02:33:49.094Z,9.70
2022-10-05T02:36:35.248Z,9.70
2022-10-05T02:39:32.229Z,9.70
2022-10-05T02:42:11.400Z,9.71
2022-10-05T02:44:52.768Z,9.69
2022-10-05T02:47:49.955Z,9.67
2022-10-05T02:50:50.722Z,9.66
2022-10-05T02:53:25.126Z,9.66
2022-10-05T02:56:08.889Z,9.64
2022-10-05T02:58:54.789Z,9.64
2022-10-05T03:01:28.187Z,9.63
2022-10-05T03:04:08.555Z,9.62
2022-10-05T03:07:00.636Z,9.60
2022-10-05T03:09:36.846Z,9.57
2022-10-05T03:12:33.492Z,9.56
2022-10-05T03:15:32.299Z,9.52
2022-10-05T03:18:23.924Z,9.50
2022-10-05T03:21:00.255Z,9.43
2022-10-05T03:23:40.155Z,9.39
2022-10-05T03:26:20.792Z,9.34
2022-10-05T03:29:14.705Z,9.30
2022-10-05T03:31:59.488Z,9.29
2022-10-05T03:34:45.477Z,9.29
2022-10-05T03:37:23.660Z,9.29
2022-10-05T03:39:56.229Z,9.30
2022-10-05T03:42:31.566Z,9.28
2022-10-05T03:45:22.316Z,9.25
2022-10-05T03:48:01.290Z,9.24
2022-10-05T03:50:51.066Z,9.23
2022-10-05T03:53:27.622Z,9.21
2022-10-05T03:56:13.880Z,9.19
2022-10-05T03:58:59.357Z,9.21
2022-10-05T04:01:42.683Z,9.22
2022-10-05T04:04:19.145Z,9.24
2022-10-05T04:06:52.680Z,9.25
2022-10-05T04:09:39.814Z,9.26
2022-10-05T04:12:27.840Z,9.26
2022-10-05T04:15:40.015Z,9.23
2022-10-05T04:18:31.462Z,9.20
2022-10-05T04:21:11.551Z,9.19
2022-10-05T04:23:40.284Z,9.18
2022-10-05T04:26:14.831Z,9.17
2022-10-05T04:29:09.345Z,9.19
2022-10-05T04:31:48.844Z,9.20
2022-10-05T04:34:35.993Z,9.21
2022-10-05T04:37:10.983Z,9.23
2022-10-05T04:39:39.389Z,9.24
2022-10-05T04:42:27.381Z,9.25
2022-10-05T04:45:20.139Z,9.25
2022-10-05T04:48:28.032Z,9.24
2022-10-05T04:51:05.769Z,9.25
2022-10-05T04:53:50.964Z,9.26
2022-10-05T04:56:36.346Z,9.28
2022-10-05T04:59:54.134Z,9.30
2022-10-05T05:02:49.696Z,9.32
2022-10-05T05:06:12.121Z,9.33
2022-10-05T05:09:12.922Z,9.31
2022-10-05T05:12:05.723Z,9.50
2022-10-05T05:14:43.355Z,9.56
2022-10-05T05:17:42.595Z,9.52
2022-10-05T05:20:37.897Z,9.46
2022-10-05T05:23:08.810Z,9.46
2022-10-05T05:25:55.157Z,9.46
2022-10-05T05:28:41.309Z,9.46
2022-10-05T05:31:33.347Z,9.45
2022-10-05T05:34:13.412Z,9.44
2022-10-05T05:37:05.559Z,9.40
2022-10-05T05:39:41.724Z,9.37
2022-10-05T05:42:20.842Z,9.37
2022-10-05T05:44:53.559Z,9.37
2022-10-05T05:47:28.183Z,9.38
2022-10-05T05:50:17.233Z,9.41
2022-10-05T05:52:59.217Z,9.48
2022-10-05T05:55:35.956Z,9.56
2022-10-05T05:58:10.812Z,9.62
2022-10-05T06:00:57.122Z,9.72
2022-10-05T06:03:30.420Z,9.83
2022-10-05T06:06:04.591Z,9.92
2022-10-05T06:08:47.341Z,10.04
2022-10-05T06:11:43.675Z,10.18
2022-10-05T06:14:35.876Z,10.29
2022-10-05T06:17:13.620Z,10.46
2022-10-05T06:19:43.964Z,10.59
2022-10-05T06:22:18.072Z,10.72
2022-10-05T06:24:58.016Z,10.84
2022-10-05T06:27:39.209Z,10.95
2022-10-05T06:30:17.352Z,11.06
2022-10-05T06:33:04.080Z,11.13
2022-10-05T06:35:38.773Z,11.18
2022-10-05T06:38:23.461Z,11.25
2022-10-05T06:41:30.766Z,11.46
2022-10-05T06:44:00.742Z,11.51
2022-10-05T06:47:10.795Z,11.52
2022-10-05T06:50:29.688Z,11.58
2022-10-05T06:53:39.251Z,11.62
2022-10-05T06:56:19.440Z,11.64
2022-10-05T06:58:59.310Z,11.67
2022-10-05T07:01:37.545Z,11.79
2022-10-05T07:04:42.622Z,11.89
2022-10-05T07:07:20.312Z,11.99
2022-10-05T07:09:56.333Z,12.09
2022-10-05T07:12:40.255Z,12.17
2022-10-05T07:15:33.836Z,12.27
2022-10-05T07:18:20.622Z,12.37
2022-10-05T07:21:29.239Z,12.46
2022-10-05T07:24:35.733Z,12.54
2022-10-05T07:27:19.374Z,12.60
2022-10-05T07:29:56.826Z,12.66
2022-10-05T07:32:29.273Z,12.73
2022-10-05T07:35:39.068Z,12.83
2022-10-05T07:38:26.529Z,12.93
2022-10-05T07:41:01.109Z,13.03
2022-10-05T07:44:01.033Z,13.17
2022-10-05T07:47:06.453Z,13.33
2022-10-05T07:49:46.323Z,13.48
2022-10-05T07:52:22.284Z,13.63
2022-10-05T07:55:05.299Z,13.79
2022-10-05T07:57:40.831Z,13.91
2022-10-05T08:00:22.704Z,14.05
2022-10-05T08:03:10.055Z,14.21
2022-10-05T08:05:42.711Z,14.40
2022-10-05T08:08:10.983Z,14.55
2022-10-05T08:11:31.336Z,14.69
2022-10-05T08:14:20.503Z,14.85
2022-10-05T08:16:52.600Z,14.98
2022-10-05T08:19:30.219Z,15.03
2022-10-05T08:22:09.071Z,15.08
2022-10-05T08:24:59.647Z,15.21
2022-10-05T08:27:43.680Z,15.27
2022-10-05T08:30:15.849Z,15.33
2022-10-05T08:33:01.808Z,15.36
2022-10-05T08:35:44.032Z,15.42
2022-10-05T08:38:16.782Z,15.45
2022-10-05T08:40:51.723Z,15.49
2022-10-05T08:43:38.211Z,15.55
2022-10-05T08:46:15.133Z,15.63
2022-10-05T08:49:01.881Z,15.70
2022-10-05T08:51:51.071Z,15.75
2022-10-05T08:54:34.030Z,15.80
2022-10-05T08:57:24.005Z,15.88
2022-10-05T09:00:05.279Z,15.94
2022-10-05T09:03:04.190Z,15.99
2022-10-05T09:06:26.000Z,16.07
2022-10-05T09:09:29.997Z,16.15
2022-10-05T09:12:08.470Z,16.15
2022-10-05T09:15:01.305Z,16.19
2022-10-05T09:18:07.461Z,16.30
2022-10-05T09:20:54.233Z,16.35
2022-10-05T09:23:43.806Z,16.43
2022-10-05T09:26:39.667Z,16.46
2022-10-05T09:29:20.085Z,16.48
2022-10-05T09:32:16.212Z,16.58
2022-10-05T09:35:22.442Z,16.63
2022-10-05T09:38:18.254Z,16.74
2022-10-05T09:40:55.383Z,16.84
2022-10-05T09:43:58.548Z,16.90
2022-10-05T09:46:44.636Z,16.98
2022-10-05T09:49:28.642Z,16.96
2022-10-05T09:52:30.697Z,17.00
2022-10-05T09:55:03.013Z,16.99
2022-10-05T09:58:22.690Z,17.04
2022-10-05T10:01:16.002Z,17.09
2022-10-05T10:04:18.322Z,17.08
2022-10-05T10:07:26.952Z,17.15
2022-10-05T10:10:29.557Z,17.19
2022-10-05T10:13:13.982Z,17.23
2022-10-05T10:16:00.114Z,17.24
2022-10-05T10:18:36.686Z,17.30
2022-10-05T10:21:22.847Z,17.33
2022-10-05T10:23:59.383Z,17.39
2022-10-05T10:26:36.342Z,17.44
2022-10-05T10:29:34.277Z,17.48
2022-10-05T10:32:20.913Z,17.58
2022-10-05T10:35:06.988Z,17.66
2022-10-05T10:37:59.808Z,17.79
2022-10-05T10:40:39.663Z,17.86
2022-10-05T10:43:35.351Z,17.91
2022-10-05T10:46:13.779Z,18.02
2022-10-05T10:48:53.161Z,18.09
2022-10-05T10:51:45.107Z,18.08
2022-10-05T10:54:18.917Z,18.23
2022-10-05T10:56:56.373Z,18.36
2022-10-05T10:59:31.609Z,18.40
2022-10-05T11:02:37.609Z,18.58
2022-10-05T11:05:27.541Z,18.68
2022-10-05T11:07:58.719Z,18.79
2022-10-05T11:10:59.057Z,18.91
2022-10-05T11:13:32.566Z,19.04
2022-10-05T11:16:19.901Z,19.12
2022-10-05T11:19:16.094Z,19.23
2022-10-05T11:22:19.297Z,19.39
2022-10-05T11:25:05.507Z,19.50
2022-10-05T11:28:00.939Z,19.57
2022-10-05T11:30:54.778Z,19.71
2022-10-05T11:33:53.355Z,19.86
2022-10-05T11:36:39.488Z,19.81
2022-10-05T11:39:19.328Z,19.84
2022-10-05T11:42:09.054Z,19.88
2022-10-05T11:45:03.855Z,19.95
2022-10-05T11:47:51.993Z,19.99
2022-10-05T11:50:39.247Z,20.05
2022-10-05T11:53:27.277Z,20.16
2022-10-05T11:56:13.422Z,20.22
2022-10-05T11:58:54.440Z,20.23
2022-10-05T12:01:43.933Z,20.22
2022-10-05T12:04:47.706Z,20.19
2022-10-05T12:07:34.271Z,20.17
2022-10-05T12:10:21.706Z,20.09
2022-10-05T12:13:28.953Z,20.05
2022-10-05T12:16:10.711Z,19.85
2022-10-05T12:18:48.419Z,19.83
2022-10-05T12:21:25.368Z,19.91
2022-10-05T12:24:08.649Z,20.02
2022-10-05T12:26:41.663Z,20.19
2022-10-05T12:29:46.490Z,20.28
2022-10-05T12:32:21.152Z,20.39
2022-10-05T12:35:02.011Z,20.40
2022-10-05T12:37:43.426Z,20.46
2022-10-05T12:40:41.933Z,20.43
2022-10-05T12:43:32.424Z,20.41
2022-10-05T12:46:08.492Z,20.46
2022-10-05T12:48:56.628Z,20.57
2022-10-05T12:51:40.015Z,20.64
2022-10-05T12:54:21.723Z,20.68
2022-10-05T12:56:59.158Z,20.60
2022-10-05T12:59:47.640Z,20.55
2022-10-05T13:02:49.468Z,20.52
2022-10-05T13:05:40.906Z,20.54
2022-10-05T13:08:14.037Z,20.60
2022-10-05T13:11:01.981Z,20.62
2022-10-05T13:13:41.091Z,20.56
2022-10-05T13:16:15.792Z,20.48
2022-10-05T13:19:06.660Z,20.41
2022-10-05T13:21:51.175Z,20.37
2022-10-05T13:24:47.238Z,20.42
2022-10-05T13:27:29.801Z,20.47
2022-10-05T13:30:02.448Z,20.46
2022-10-05T13:32:43.089Z,20.56
2022-10-05T13:35:32.600Z,20.66
2022-10-05T13:38:24.762Z,20.65
2022-10-05T13:41:13.397Z,20.56
2022-10-05T13:44:00.516Z,20.46
2022-10-05T13:46:58.182Z,20.35
2022-10-05T13:49:40.549Z,20.27
2022-10-05T13:52:09.155Z,20.24
2022-10-05T13:54:45.794Z,20.21
2022-10-05T13:57:23.261Z,20.18
2022-10-05T14:00:13.590Z,20.08
2022-10-05T14:02:43.658Z,20.03
2022-10-05T14:05:22.107Z,19.99
2022-10-05T14:07:55.929Z,19.97
2022-10-05T14:10:36.714Z,19.94
2022-10-05T14:13:34.981Z,19.91
2022-10-05T14:16:20.906Z,19.84
2022-10-05T14:19:09.493Z,19.71
2022-10-05T14:22:11.301Z,19.62
2022-10-05T14:25:14.041Z,19.57
2022-10-05T14:28:03.795Z,19.64
2022-10-05T14:30:32.941Z,19.68
2022-10-05T14:33:03.641Z,19.69
2022-10-05T14:35:43.965Z,19.72
2022-10-05T14:38:22.756Z,19.75
2022-10-05T14:41:17.924Z,19.81
2022-10-05T14:43:53.863Z,19.84
2022-10-05T14:46:27.866Z,19.89
2022-10-05T14:49:38.277Z,19.90
2022-10-05T14:52:32.540Z,19.86
2022-10-05T14:55:23.925Z,19.86
2022-10-05T14:58:05.624Z,19.90
2022-10-05T15:00:46.859Z,19.91
2022-10-05T15:03:19.787Z,19.90
2022-10-05T15:05:58.996Z,19.85
2022-10-05T15:08:53.407Z,19.78
2022-10-05T15:11:40.460Z,19.69
2022-10-05T15:14:22.385Z,19.60
2022-10-05T15:16:54.269Z,19.52
2022-10-05T15:19:53.098Z,19.39
2022-10-05T15:22:46.599Z,19.26
2022-10-05T15:25:37.265Z,19.14
2022-10-05T15:28:26.964Z,19.03
2022-10-05T15:31:03.448Z,18.91
2022-10-05T15:33:41.602Z,18.82
2022-10-05T15:36:23.015Z,18.73
2022-10-05T15:39:02.233Z,18.65
2022-10-05T15:41:35.773Z,18.56
2022-10-05T15:44:26.328Z,18.43
2022-10-05T15:46:58.794Z,18.31
2022-10-05T15:49:57.331Z,18.22
2022-10-05T15:52:36.096Z,18.13
2022-10-05T15:55:06.846Z,18.06
2022-10-05T15:58:08.151Z,18.01
2022-10-05T16:00:55.159Z,17.89
2022-10-05T16:03:48.990Z,17.76
2022-10-05T16:07:31.597Z,17.65
2022-10-05T16:10:11.632Z,17.49
2022-10-05T16:12:55.031Z,17.41
2022-10-05T16:15:43.300Z,17.33
2022-10-05T16:18:18.913Z,17.24
2022-10-05T16:20:57.156Z,17.15
2022-10-05T16:23:53.016Z,17.03
2022-10-05T16:26:31.870Z,16.92
2022-10-05T16:29:14.649Z,16.79
2022-10-05T16:31:54.393Z,16.67
2022-10-05T16:34:25.516Z,16.58
2022-10-05T16:37:31.119Z,16.50
2022-10-05T16:40:10.232Z,16.42
2022-10-05T16:42:44.280Z,16.34
2022-10-05T16:45:14.882Z,16.25
2022-10-05T16:47:50.436Z,16.19
2022-10-05T16:50:30.309Z,16.14
2022-10-05T16:53:04.904Z,16.06
2022-10-05T16:55:42.155Z,16.01
2022-10-05T16:58:47.561Z,15.97
2022-10-05T17:01:43.796Z,15.92
2022-10-05T17:04:39.242Z,15.90
2022-10-05T17:07:21.421Z,15.96
2022-10-05T17:09:59.466Z,15.89
2022-10-05T17:12:51.540Z,15.82
2022-10-05T17:15:40.591Z,15.73
2022-10-05T17:18:17.978Z,15.65
2022-10-05T17:21:08.029Z,15.57
2022-10-05T17:23:58.757Z,15.49
2022-10-05T17:26:47.184Z,15.41
2022-10-05T17:29:28.100Z,15.33
2022-10-05T17:32:09.286Z,15.28
2022-10-05T17:34:40.005Z,15.25
2022-10-05T17:37:35.846Z,15.26
2022-10-05T17:40:35.209Z,15.23
2022-10-05T17:43:15.621Z,15.18
2022-10-05T17:45:43.512Z,15.13
2022-10-05T17:48:13.327Z,15.08
2022-10-05T17:51:03.415Z,15.09
2022-10-05T17:53:52.568Z,15.04
2022-10-05T17:56:22.988Z,15.05
2022-10-05T17:58:54.487Z,15.02
2022-10-05T18:01:32.858Z,14.99
2022-10-05T18:04:13.042Z,14.97
2022-10-05T18:06:44.666Z,14.96
2022-10-05T18:09:20.789Z,14.94
2022-10-05T18:12:16.459Z,14.93
2022-10-05T18:14:59.936Z,14.90
2022-10-05T18:17:45.223Z,14.86
2022-10-05T18:20:27.101Z,14.84
2022-10-05T18:23:05.916Z,14.80
2022-10-05T18:25:51.719Z,14.76
2022-10-05T18:28:28.610Z,14.72
2022-10-05T18:31:26.065Z,14.66
2022-10-05T18:34:15.459Z,14.62
2022-10-05T18:36:49.454Z,14.57
2022-10-05T18:39:37.353Z,14.50
2022-10-05T18:42:27.350Z,14.45
2022-10-05T18:44:55.915Z,14.40
2022-10-05T18:47:48.100Z,14.34
2022-10-05T18:50:38.504Z,14.32
2022-10-05T18:53:13.501Z,14.27
2022-10-05T18:56:10.735Z,14.20
2022-10-05T18:59:01.001Z,14.13
2022-10-05T19:02:16.987Z,14.10
2022-10-05T19:04:47.901Z,14.04
2022-10-05T19:07:27.857Z,13.97
2022-10-05T19:10:17.951Z,13.98
2022-10-05T19:13:16.291Z,13.96
2022-10-05T19:16:08.471Z,13.94
2022-10-05T19:19:01.287Z,13.87
2022-10-05T19:21:54.511Z,13.82
2022-10-05T19:25:09.928Z,13.80
2022-10-05T19:28:00.302Z,13.79
2022-10-05T19:30:47.432Z,13.76
2022-10-05T19:33:31.140Z,13.72
2022-10-05T19:36:02.091Z,13.72
2022-10-05T19:38:53.799Z,13.72
2022-10-05T19:41:46.068Z,13.73
2022-10-05T19:44:46.099Z,13.73
2022-10-05T19:47:44.398Z,13.73
2022-10-05T19:50:21.989Z,13.70
2022-10-05T19:52:57.429Z,13.65
2022-10-05T19:55:34.657Z,13.61
2022-10-05T19:58:19.081Z,13.57
2022-10-05T20:01:01.569Z,13.52
2022-10-05T20:03:31.825Z,13.48
2022-10-05T20:06:03.261Z,13.42
2022-10-05T20:09:18.203Z,13.40
2022-10-05T20:11:50.798Z,13.39
2022-10-05T20:14:32.814Z,13.36
2022-10-05T20:17:45.082Z,13.34
2022-10-05T20:20:34.356Z,13.32
2022-10-05T20:23:24.695Z,13.28
2022-10-05T20:26:11.865Z,13.23
2022-10-05T20:28:40.288Z,13.17
2022-10-05T20:31:09.020Z,13.14
2022-10-05T20:33:36.918Z,13.11
2022-10-05T20:36:05.002Z,13.10
2022-10-05T20:38:40.063Z,13.08
2022-10-05T20:41:09.204Z,13.03
2022-10-05T20:43:39.437Z,13.01
2022-10-05T20:46:07.706Z,12.98
2022-10-05T20:48:36.842Z,12.96
2022-10-05T20:51:05.161Z,12.95
2022-10-05T20:53:34.013Z,12.95
2022-10-05T20:56:04.668Z,12.94
2022-10-05T20:58:32.551Z,12.91
2022-10-05T21:01:18.604Z,12.92
2022-10-05T21:03:47.191Z,12.94
2022-10-05T21:06:15.248Z,12.93
2022-10-05T21:08:43.392Z,12.91
2022-10-05T21:11:11.679Z,12.87
2022-10-05T21:13:45.677Z,12.83
2022-10-05T21:16:17.190Z,12.79
2022-10-05T21:18:47.406Z,12.80
2022-10-05T21:21:18.620Z,12.77
2022-10-05T21:23:48.144Z,12.73
2022-10-05T21:26:16.409Z,12.72
2022-10-05T21:28:44.541Z,12.70
2022-10-05T21:31:13.262Z,12.67
2022-10-05T21:33:41.635Z,12.66
2022-10-05T21:36:10.127Z,12.64
2022-10-05T21:38:38.286Z,12.63
2022-10-05T21:41:08.048Z,12.61
2022-10-05T21:43:37.509Z,12.60
2022-10-05T21:46:06.243Z,12.58
2022-10-05T21:48:36.766Z,12.59
2022-10-05T21:51:05.498Z,12.58
2022-10-05T21:53:39.037Z,12.55
2022-10-05T21:56:12.616Z,12.54
2022-10-05T21:58:44.717Z,12.55
2022-10-05T22:01:13.330Z,12.56
2022-10-05T22:03:41.705Z,12.55
2022-10-05T22:06:10.377Z,12.53
2022-10-05T22:08:38.303Z,12.51
2022-10-05T22:11:12.842Z,12.52
2022-10-05T22:13:46.699Z,12.53
2022-10-05T22:16:16.705Z,12.54
2022-10-05T22:18:45.142Z,12.58
2022-10-05T22:21:14.249Z,12.59
2022-10-05T22:23:43.767Z,12.57
2022-10-05T22:26:14.587Z,12.57
2022-10-05T22:28:43.487Z,12.53
2022-10-05T22:31:12.881Z,12.49
2022-10-05T22:33:41.324Z,12.46
2022-10-05T22:36:10.117Z,12.44
2022-10-05T22:38:38.290Z,12.45
2022-10-05T22:41:11.232Z,12.45
2022-10-05T22:43:39.350Z,12.50
2022-10-05T22:46:10.238Z,12.49
2022-10-05T22:48:39.170Z,12.51
2022-10-05T22:51:07.467Z,12.54
2022-10-05T22:53:36.129Z,12.54
2022-10-05T22:56:06.816Z,12.52
2022-10-05T22:58:35.609Z,12.53
2022-10-05T23:01:08.541Z,12.54
2022-10-05T23:03:36.949Z,12.54
2022-10-05T23:06:10.833Z,12.56
2022-10-05T23:08:39.916Z,12.59
2022-10-05T23:11:11.670Z,12.60
2022-10-05T23:13:40.553Z,12.59
2022-10-05T23:16:11.658Z,12.58
2022-10-05T23:18:41.130Z,12.58
2022-10-05T23:21:10.529Z,12.57
2022-10-05T23:23:40.833Z,12.57
2022-10-05T23:26:11.594Z,12.56
2022-10-05T23:28:43.354Z,12.55
2022-10-05T23:31:11.257Z,12.57
2022-10-05T23:33:39.229Z,12.58
2022-10-05T23:36:12.821Z,12.58
2022-10-05T23:38:41.686Z,12.58
2022-10-05T23:41:09.922Z,12.55
2022-10-05T23:43:38.083Z,12.55
2022-10-05T23:46:07.484Z,12.55
2022-10-05T23:48:39.170Z,12.59
2022-10-05T23:51:09.791Z,12.61
2022-10-05T23:53:37.921Z,12.59
2022-10-05T23:56:06.349Z,12.61
2022-10-05T23:58:34.384Z,12.61
